createdAt,value
2019-03-20T00:00:35.998Z,92.60
2019-03-20T00:03:05.508Z,94.63
2019-03-20T00:05:35.016Z,96.87
2019-03-20T00:08:04.606Z,93.20
2019-03-20T00:10:34.733Z,93.87
2019-03-20T00:13:04.122Z,96.60
2019-03-20T00:15:33.441Z,87.63
2019-03-20T00:18:02.789Z,92.63
2019-03-20T00:20:33.356Z,97.10
2019-03-20T00:23:02.849Z,96.57
2019-03-20T00:25:32.280Z,106.87
2019-03-20T00:28:01.463Z,95.73
2019-03-20T00:30:30.975Z,98.77
2019-03-20T00:33:00.393Z,92.87
2019-03-20T00:35:30.005Z,95.33
2019-03-20T00:38:00.224Z,87.80
2019-03-20T00:40:30.535Z,87.47
2019-03-20T00:42:59.721Z,93.50
2019-03-20T00:45:29.562Z,93.80
2019-03-20T00:48:06.005Z,100.23
2019-03-20T00:50:35.598Z,80.37
2019-03-20T00:53:05.008Z,86.30
2019-03-20T00:55:34.262Z,88.23
2019-03-20T00:58:04.744Z,86.53
2019-03-20T01:00:34.111Z,91.63
2019-03-20T01:03:04.235Z,85.50
2019-03-20T01:05:33.786Z,90.43
2019-03-20T01:08:05.461Z,84.40
2019-03-20T01:10:34.918Z,81.83
2019-03-20T01:13:04.503Z,88.50
2019-03-20T01:15:33.929Z,85.13
2019-03-20T01:18:03.546Z,89.73
2019-03-20T01:20:32.871Z,94.50
2019-03-20T01:23:02.399Z,92.13
2019-03-20T01:25:31.891Z,82.43
2019-03-20T01:28:01.388Z,78.17
2019-03-20T01:30:31.277Z,91.60
2019-03-20T01:33:02.381Z,94.43
2019-03-20T01:35:31.809Z,92.37
2019-03-20T01:38:03.269Z,88.77
2019-03-20T01:40:33.579Z,95.73
2019-03-20T01:43:02.937Z,97.07
2019-03-20T01:45:32.493Z,91.60
2019-03-20T01:48:01.982Z,87.97
2019-03-20T01:50:31.490Z,86.53
2019-03-20T01:53:00.770Z,89.13
2019-03-20T01:55:30.118Z,97.50
2019-03-20T01:57:59.535Z,89.17
2019-03-20T02:00:28.929Z,88.53
2019-03-20T02:02:58.192Z,95.53
2019-03-20T02:05:35.727Z,95.73
2019-03-20T02:08:00.907Z,89.80
2019-03-20T02:10:30.084Z,82.67
2019-03-20T02:13:01.498Z,97.40
2019-03-20T02:15:38.865Z,87.37
2019-03-20T02:18:02.558Z,79.77
2019-03-20T02:20:37.933Z,73.40
2019-03-20T02:23:09.520Z,78.80
2019-03-20T02:25:40.059Z,76.50
2019-03-20T02:28:10.449Z,87.33
2019-03-20T02:30:40.057Z,79.60
2019-03-20T02:33:09.423Z,79.17
2019-03-20T02:35:50.769Z,88.07
2019-03-20T02:38:09.665Z,82.30
2019-03-20T02:40:38.855Z,79.57
2019-03-20T02:43:08.301Z,82.43
2019-03-20T02:45:37.856Z,89.57
2019-03-20T02:48:07.345Z,85.20
2019-03-20T02:50:37.260Z,89.17
2019-03-20T02:53:06.964Z,89.83
2019-03-20T02:55:36.284Z,94.10
2019-03-20T02:58:05.982Z,86.75
2019-03-20T03:00:36.448Z,86.27
2019-03-20T03:03:06.068Z,87.63
2019-03-20T03:05:35.514Z,85.87
2019-03-20T03:08:05.112Z,84.37
2019-03-20T03:10:34.516Z,89.07
2019-03-20T03:13:04.037Z,85.03
2019-03-20T03:15:33.487Z,83.10
2019-03-20T03:18:03.869Z,85.90
2019-03-20T03:20:33.332Z,87.97
2019-03-20T03:23:02.819Z,78.67
2019-03-20T03:25:33.141Z,81.17
2019-03-20T03:28:02.639Z,87.67
2019-03-20T03:30:32.137Z,80.07
2019-03-20T03:33:03.725Z,78.53
2019-03-20T03:35:33.255Z,84.33
2019-03-20T03:38:02.777Z,79.03
2019-03-20T03:40:32.207Z,74.30
2019-03-20T03:43:01.441Z,84.60
2019-03-20T03:45:30.817Z,76.70
2019-03-20T03:48:00.305Z,75.87
2019-03-20T03:50:29.854Z,88.50
2019-03-20T03:52:59.324Z,76.07
2019-03-20T03:55:28.570Z,86.40
2019-03-20T03:57:57.964Z,88.33
2019-03-20T04:00:27.575Z,74.13
2019-03-20T04:02:56.964Z,90.90
2019-03-20T04:05:26.862Z,83.80
2019-03-20T04:07:56.428Z,84.83
2019-03-20T04:10:25.877Z,79.90
2019-03-20T04:12:55.402Z,84.20
2019-03-20T04:15:25.696Z,90.00
2019-03-20T04:17:55.245Z,90.13
2019-03-20T04:20:24.745Z,87.03
2019-03-20T04:22:54.198Z,84.83
2019-03-20T04:25:24.605Z,93.50
2019-03-20T04:27:55.667Z,85.17
2019-03-20T04:30:24.846Z,82.13
2019-03-20T04:32:54.421Z,89.27
2019-03-20T04:35:23.959Z,90.13
2019-03-20T04:37:53.359Z,79.23
2019-03-20T04:40:22.785Z,86.90
2019-03-20T04:42:51.979Z,95.20
2019-03-20T04:45:21.471Z,92.03
2019-03-20T04:47:51.074Z,88.43
2019-03-20T04:50:31.243Z,91.03
2019-03-20T04:53:00.551Z,107.10
2019-03-20T04:55:29.802Z,91.43
2019-03-20T04:57:59.157Z,97.93
2019-03-20T05:00:28.670Z,103.47
2019-03-20T05:02:57.859Z,95.70
2019-03-20T05:05:27.327Z,99.37
2019-03-20T05:07:57.619Z,95.70
2019-03-20T05:10:28.726Z,110.03
2019-03-20T05:12:57.914Z,100.33
2019-03-20T05:15:27.357Z,101.27
2019-03-20T05:17:56.911Z,103.73
2019-03-20T05:20:26.426Z,113.70
2019-03-20T05:22:55.850Z,111.13
2019-03-20T05:25:25.107Z,112.80
2019-03-20T05:27:54.454Z,99.50
2019-03-20T05:30:23.624Z,107.37
2019-03-20T05:32:53.095Z,104.73
2019-03-20T05:35:22.337Z,107.63
2019-03-20T05:37:51.791Z,100.37
2019-03-20T05:40:21.388Z,106.53
2019-03-20T05:42:50.826Z,108.73
2019-03-20T05:45:20.513Z,114.03
2019-03-20T05:47:51.134Z,92.27
2019-03-20T05:50:21.263Z,114.13
2019-03-20T05:52:50.999Z,106.47
2019-03-20T05:55:20.309Z,109.13
2019-03-20T05:57:49.787Z,107.70
2019-03-20T06:00:21.722Z,110.67
2019-03-20T06:02:52.867Z,111.07
2019-03-20T06:05:22.360Z,107.77
2019-03-20T06:07:51.895Z,104.10
2019-03-20T06:10:27.114Z,103.53
2019-03-20T06:12:56.787Z,101.20
2019-03-20T06:15:26.104Z,98.10
2019-03-20T06:17:55.688Z,97.73
2019-03-20T06:20:25.124Z,99.67
2019-03-20T06:22:56.843Z,96.30
2019-03-20T06:25:26.220Z,98.40
2019-03-20T06:27:55.692Z,92.33
2019-03-20T06:30:25.195Z,99.87
2019-03-20T06:32:59.852Z,99.37
2019-03-20T06:35:29.932Z,90.63
2019-03-20T06:38:00.250Z,87.17
2019-03-20T06:40:29.437Z,82.00
2019-03-20T06:42:58.678Z,84.63
2019-03-20T06:45:27.953Z,79.17
2019-03-20T06:47:57.124Z,89.07
2019-03-20T06:50:26.656Z,84.03
2019-03-20T06:52:56.067Z,79.10
2019-03-20T06:55:25.274Z,73.63
2019-03-20T06:57:54.431Z,72.17
2019-03-20T07:00:46.252Z,83.90
2019-03-20T07:03:31.324Z,77.23
2019-03-20T07:06:18.389Z,80.33
2019-03-20T07:08:56.772Z,80.70
2019-03-20T07:11:25.064Z,76.00
2019-03-20T07:13:54.356Z,69.90
2019-03-20T07:16:23.521Z,68.97
2019-03-20T07:18:52.977Z,75.17
2019-03-20T07:21:22.490Z,67.57
2019-03-20T07:23:51.991Z,65.70
2019-03-20T07:26:21.159Z,55.93
2019-03-20T07:28:50.654Z,60.83
2019-03-20T07:31:22.167Z,56.73
2019-03-20T07:33:51.629Z,48.03
2019-03-20T07:36:22.225Z,44.83
2019-03-20T07:38:51.706Z,49.87
2019-03-20T07:41:21.252Z,46.30
2019-03-20T07:43:51.709Z,41.37
2019-03-20T07:46:21.209Z,38.83
2019-03-20T07:48:50.672Z,36.83
2019-03-20T07:51:19.848Z,35.67
2019-03-20T07:53:49.536Z,41.37
2019-03-20T07:56:18.814Z,33.03
2019-03-20T07:58:48.055Z,30.70
2019-03-20T08:01:17.501Z,37.10
2019-03-20T08:03:47.757Z,32.67
2019-03-20T08:06:16.933Z,35.03
2019-03-20T08:08:46.354Z,36.60
2019-03-20T08:11:15.514Z,30.40
2019-03-20T08:13:44.984Z,31.73
2019-03-20T08:16:14.465Z,27.20
2019-03-20T08:18:43.967Z,29.97
2019-03-20T08:21:13.476Z,31.43
2019-03-20T08:23:43.055Z,24.60
2019-03-20T08:26:12.586Z,20.20
2019-03-20T08:28:41.971Z,23.83
2019-03-20T08:31:11.160Z,18.40
2019-03-20T08:33:40.583Z,23.03
2019-03-20T08:36:10.943Z,31.23
2019-03-20T08:38:43.343Z,19.30
2019-03-20T08:41:14.850Z,18.53
2019-03-20T08:43:51.152Z,19.43
2019-03-20T08:46:20.395Z,18.50
2019-03-20T08:48:50.808Z,19.77
2019-03-20T08:51:25.963Z,20.23
2019-03-20T08:53:56.343Z,17.60
2019-03-20T08:56:26.211Z,20.67
2019-03-20T08:58:55.382Z,17.60
2019-03-20T09:01:28.898Z,22.47
2019-03-20T09:03:55.956Z,21.23
2019-03-20T09:06:32.484Z,24.43
2019-03-20T09:09:01.926Z,18.57
2019-03-20T09:11:31.425Z,23.80
2019-03-20T09:14:01.759Z,24.77
2019-03-20T09:16:32.069Z,20.57
2019-03-20T09:19:01.242Z,21.50
2019-03-20T09:21:30.422Z,19.40
2019-03-20T09:23:59.797Z,21.17
2019-03-20T09:26:29.349Z,18.17
2019-03-20T09:28:58.783Z,22.87
2019-03-20T09:31:28.286Z,21.90
2019-03-20T09:33:57.844Z,22.57
2019-03-20T09:36:27.345Z,20.07
2019-03-20T09:38:56.813Z,20.47
2019-03-20T09:41:26.061Z,17.87
2019-03-20T09:43:57.459Z,19.00
2019-03-20T09:46:31.971Z,19.27
2019-03-20T09:49:01.380Z,20.17
2019-03-20T09:51:30.713Z,21.77
2019-03-20T09:54:00.840Z,21.90
2019-03-20T09:56:30.293Z,21.97
2019-03-20T09:58:59.469Z,20.73
2019-03-20T10:01:28.920Z,21.30
2019-03-20T10:03:58.430Z,21.83
2019-03-20T10:06:27.582Z,20.37
2019-03-20T10:08:59.089Z,25.47
2019-03-20T10:11:28.630Z,19.27
2019-03-20T10:13:58.073Z,22.23
2019-03-20T10:16:27.266Z,16.37
2019-03-20T10:18:56.674Z,21.27
2019-03-20T10:21:27.017Z,21.23
2019-03-20T10:23:56.587Z,21.03
2019-03-20T10:26:26.828Z,17.10
2019-03-20T10:28:57.166Z,17.73
2019-03-20T10:31:26.386Z,19.23
2019-03-20T10:33:56.684Z,17.27
2019-03-20T10:36:26.090Z,18.03
2019-03-20T10:39:05.961Z,14.77
2019-03-20T10:41:27.557Z,15.90
2019-03-20T10:43:57.061Z,16.93
2019-03-20T10:46:26.243Z,14.50
2019-03-20T10:48:56.488Z,18.30
2019-03-20T10:51:25.979Z,15.97
2019-03-20T10:53:55.474Z,18.00
2019-03-20T10:56:24.625Z,19.50
2019-03-20T10:58:54.154Z,13.60
2019-03-20T11:01:23.310Z,14.87
2019-03-20T11:03:52.754Z,18.80
2019-03-20T11:06:22.192Z,18.03
2019-03-20T11:08:52.515Z,14.83
2019-03-20T11:11:26.925Z,14.57
2019-03-20T11:13:54.295Z,14.20
2019-03-20T11:16:24.746Z,13.20
2019-03-20T11:18:54.224Z,14.93
2019-03-20T11:21:23.501Z,12.00
2019-03-20T11:23:52.838Z,16.30
2019-03-20T11:26:22.343Z,10.23
2019-03-20T11:28:52.645Z,14.17
2019-03-20T11:31:22.978Z,15.50
2019-03-20T11:33:58.669Z,12.37
2019-03-20T11:36:28.148Z,14.80
2019-03-20T11:38:57.632Z,11.53
2019-03-20T11:41:28.798Z,16.60
2019-03-20T11:43:59.110Z,12.43
2019-03-20T11:46:28.710Z,20.67
2019-03-20T11:49:00.372Z,18.50
2019-03-20T11:51:29.680Z,13.97
2019-03-20T11:54:00.870Z,19.40
2019-03-20T11:56:30.475Z,16.43
2019-03-20T11:58:59.911Z,13.37
2019-03-20T12:01:29.340Z,21.37
2019-03-20T12:03:59.694Z,19.00
2019-03-20T12:06:34.939Z,20.50
2019-03-20T12:09:08.445Z,17.17
2019-03-20T12:11:45.770Z,18.00
2019-03-20T12:14:09.151Z,15.80
2019-03-20T12:16:38.672Z,13.00
2019-03-20T12:19:07.826Z,13.73
2019-03-20T12:21:37.246Z,21.07
2019-03-20T12:24:06.407Z,23.80
2019-03-20T12:26:36.146Z,18.20
2019-03-20T12:29:05.569Z,21.07
2019-03-20T12:31:34.863Z,18.67
2019-03-20T12:34:05.271Z,15.87
2019-03-20T12:36:34.704Z,20.57
2019-03-20T12:39:07.132Z,17.80
2019-03-20T12:41:36.650Z,18.47
2019-03-20T12:44:06.082Z,19.10
2019-03-20T12:46:41.322Z,13.53
2019-03-20T12:49:07.135Z,13.07
2019-03-20T12:51:36.298Z,19.47
2019-03-20T12:54:05.749Z,19.50
2019-03-20T12:56:35.238Z,14.63
2019-03-20T12:59:05.627Z,26.47
2019-03-20T13:01:36.322Z,19.63
2019-03-20T13:04:05.937Z,15.57
2019-03-20T13:06:35.437Z,12.43
2019-03-20T13:09:07.238Z,16.97
2019-03-20T13:11:37.688Z,16.97
2019-03-20T13:14:07.299Z,15.67
2019-03-20T13:16:37.455Z,19.40
2019-03-20T13:19:16.107Z,17.00
2019-03-20T13:21:48.406Z,13.60
2019-03-20T13:24:18.238Z,23.10
2019-03-20T13:26:48.654Z,12.07
2019-03-20T13:29:18.079Z,12.97
2019-03-20T13:31:47.568Z,11.93
2019-03-20T13:34:16.746Z,11.80
2019-03-20T13:36:47.082Z,12.80
2019-03-20T13:39:16.507Z,18.07
2019-03-20T13:41:46.012Z,10.67
2019-03-20T13:44:15.677Z,14.03
2019-03-20T13:46:45.841Z,16.43
2019-03-20T13:49:15.342Z,17.43
2019-03-20T13:51:46.896Z,15.30
2019-03-20T13:54:17.233Z,23.67
2019-03-20T13:56:46.862Z,23.67
2019-03-20T13:59:18.276Z,11.97
2019-03-20T14:01:47.436Z,16.63
2019-03-20T14:04:16.609Z,18.00
2019-03-20T14:06:46.007Z,14.67
2019-03-20T14:09:15.473Z,15.70
2019-03-20T14:11:44.758Z,11.13
2019-03-20T14:14:14.154Z,14.70
2019-03-20T14:16:43.618Z,14.83
2019-03-20T14:19:13.102Z,17.30
2019-03-20T14:21:42.608Z,20.93
2019-03-20T14:24:12.110Z,10.57
2019-03-20T14:26:41.619Z,15.80
2019-03-20T14:29:11.155Z,23.37
2019-03-20T14:31:40.656Z,15.43
2019-03-20T14:34:10.189Z,16.20
2019-03-20T14:36:39.639Z,16.43
2019-03-20T14:39:08.884Z,17.87
2019-03-20T14:41:38.231Z,14.77
2019-03-20T14:44:07.722Z,13.47
2019-03-20T14:46:36.888Z,18.30
2019-03-20T14:49:06.328Z,15.33
2019-03-20T14:51:35.589Z,14.93
2019-03-20T14:54:05.402Z,22.03
2019-03-20T14:56:34.860Z,17.47
2019-03-20T14:59:04.561Z,19.67
2019-03-20T15:01:33.998Z,16.00
2019-03-20T15:04:03.502Z,19.47
2019-03-20T15:06:32.903Z,17.73
2019-03-20T15:09:02.433Z,16.37
2019-03-20T15:11:31.900Z,16.23
2019-03-20T15:14:03.437Z,14.97
2019-03-20T15:16:32.701Z,18.17
2019-03-20T15:19:02.030Z,16.70
2019-03-20T15:21:31.275Z,15.00
2019-03-20T15:24:02.692Z,18.67
2019-03-20T15:26:35.161Z,20.73
2019-03-20T15:29:04.987Z,15.87
2019-03-20T15:31:34.475Z,19.53
2019-03-20T15:34:03.714Z,19.67
2019-03-20T15:36:33.094Z,20.17
2019-03-20T15:39:02.582Z,24.37
2019-03-20T15:41:31.830Z,20.60
2019-03-20T15:44:03.367Z,20.17
2019-03-20T15:46:32.756Z,24.10
2019-03-20T15:49:02.250Z,20.70
2019-03-20T15:51:31.414Z,18.67
2019-03-20T15:54:00.919Z,26.67
2019-03-20T15:56:31.175Z,22.20
2019-03-20T15:59:03.547Z,19.60
2019-03-20T16:01:32.716Z,22.63
2019-03-20T16:04:04.875Z,24.63
2019-03-20T16:06:35.351Z,25.67
2019-03-20T16:09:07.586Z,22.67
2019-03-20T16:11:36.824Z,22.80
2019-03-20T16:14:06.041Z,19.63
2019-03-20T16:16:37.445Z,23.70
2019-03-20T16:19:06.622Z,25.40
2019-03-20T16:21:36.126Z,21.27
2019-03-20T16:24:05.576Z,28.20
2019-03-20T16:26:35.900Z,28.70
2019-03-20T16:29:05.390Z,28.13
2019-03-20T16:31:34.617Z,28.87
2019-03-20T16:34:04.089Z,25.80
2019-03-20T16:36:35.565Z,23.83
2019-03-20T16:39:07.459Z,26.20
2019-03-20T16:41:36.635Z,30.87
2019-03-20T16:44:06.233Z,29.07
2019-03-20T16:46:36.436Z,25.87
2019-03-20T16:49:05.665Z,31.83
2019-03-20T16:51:35.045Z,31.97
2019-03-20T16:54:04.809Z,27.23
2019-03-20T16:56:35.303Z,30.63
2019-03-20T16:59:05.049Z,34.80
2019-03-20T17:01:34.291Z,28.23
2019-03-20T17:04:03.483Z,26.20
2019-03-20T17:06:32.642Z,32.83
2019-03-20T17:09:01.985Z,29.80
2019-03-20T17:11:38.255Z,33.50
2019-03-20T17:14:02.217Z,32.30
2019-03-20T17:16:31.405Z,35.40
2019-03-20T17:19:00.918Z,35.33
2019-03-20T17:21:31.163Z,42.60
2019-03-20T17:24:01.510Z,31.73
2019-03-20T17:26:31.071Z,40.40
2019-03-20T17:29:08.682Z,34.67
2019-03-20T17:31:32.605Z,30.87
2019-03-20T17:34:01.942Z,30.23
2019-03-20T17:36:31.142Z,32.50
2019-03-20T17:39:00.576Z,28.93
2019-03-20T17:41:36.602Z,30.57
2019-03-20T17:44:00.815Z,29.67
2019-03-20T17:46:31.113Z,41.50
2019-03-20T17:49:00.366Z,37.03
2019-03-20T17:51:35.457Z,34.00
2019-03-20T17:54:04.749Z,34.03
2019-03-20T17:56:34.074Z,32.60
2019-03-20T17:59:04.524Z,35.43
2019-03-20T18:01:33.928Z,29.13
2019-03-20T18:04:03.485Z,43.27
2019-03-20T18:06:33.800Z,51.20
2019-03-20T18:09:04.313Z,60.83
2019-03-20T18:11:33.558Z,78.53
2019-03-20T18:14:03.067Z,65.83
2019-03-20T18:16:32.639Z,68.57
2019-03-20T18:19:02.067Z,67.57
2019-03-20T18:21:32.472Z,63.67
2019-03-20T18:24:02.720Z,69.63
2019-03-20T18:26:32.222Z,69.57
2019-03-20T18:29:01.435Z,58.90
2019-03-20T18:31:30.907Z,66.63
2019-03-20T18:34:00.332Z,64.40
2019-03-20T18:36:31.986Z,70.70
2019-03-20T18:39:01.380Z,59.57
2019-03-20T18:41:30.596Z,55.93
2019-03-20T18:44:00.804Z,62.60
2019-03-20T18:46:30.385Z,77.80
2019-03-20T18:48:59.824Z,120.53
2019-03-20T18:51:30.141Z,137.93
2019-03-20T18:53:59.313Z,93.13
2019-03-20T18:56:28.750Z,67.17
2019-03-20T18:58:58.247Z,74.00
2019-03-20T19:01:33.499Z,72.77
2019-03-20T19:04:04.211Z,68.00
2019-03-20T19:06:34.142Z,77.27
2019-03-20T19:09:05.403Z,58.30
2019-03-20T19:11:34.967Z,50.20
2019-03-20T19:14:05.152Z,63.03
2019-03-20T19:16:34.636Z,59.20
2019-03-20T19:19:04.577Z,61.57
2019-03-20T19:21:34.145Z,42.40
2019-03-20T19:24:03.600Z,44.70
2019-03-20T19:26:34.204Z,41.80
2019-03-20T19:29:03.499Z,40.13
2019-03-20T19:31:32.899Z,44.50
2019-03-20T19:34:02.418Z,47.43
2019-03-20T19:36:31.884Z,59.90
2019-03-20T19:39:01.444Z,71.23
2019-03-20T19:41:30.978Z,68.60
2019-03-20T19:44:00.386Z,64.63
2019-03-20T19:46:29.576Z,65.80
2019-03-20T19:48:59.004Z,71.73
2019-03-20T19:51:34.268Z,66.57
2019-03-20T19:54:04.190Z,90.30
2019-03-20T19:56:34.493Z,90.33
2019-03-20T19:59:04.162Z,76.17
2019-03-20T20:01:33.766Z,59.20
2019-03-20T20:04:04.507Z,56.00
2019-03-20T20:06:36.295Z,60.07
2019-03-20T20:09:06.928Z,54.40
2019-03-20T20:11:36.613Z,51.80
2019-03-20T20:14:06.014Z,50.73
2019-03-20T20:16:35.521Z,43.70
2019-03-20T20:19:05.030Z,50.90
2019-03-20T20:21:34.470Z,49.50
2019-03-20T20:24:04.043Z,47.77
2019-03-20T20:26:33.470Z,46.30
2019-03-20T20:29:02.749Z,48.70
2019-03-20T20:31:32.228Z,68.03
2019-03-20T20:34:01.721Z,57.43
2019-03-20T20:36:33.167Z,45.37
2019-03-20T20:39:02.626Z,55.20
2019-03-20T20:41:32.174Z,61.17
2019-03-20T20:44:01.692Z,60.97
2019-03-20T20:46:31.155Z,60.67
2019-03-20T20:49:00.344Z,53.73
2019-03-20T20:51:29.801Z,56.03
2019-03-20T20:53:59.259Z,51.23
2019-03-20T20:56:28.417Z,46.03
2019-03-20T20:58:57.954Z,39.53
2019-03-20T21:01:30.187Z,39.27
2019-03-20T21:04:01.493Z,36.60
2019-03-20T21:06:30.880Z,45.33
2019-03-20T21:09:00.059Z,43.23
2019-03-20T21:11:31.515Z,44.63
2019-03-20T21:14:01.864Z,45.07
2019-03-20T21:16:32.249Z,41.97
2019-03-20T21:19:33.612Z,41.77
2019-03-20T21:22:23.110Z,39.50
2019-03-20T21:24:52.293Z,37.40
2019-03-20T21:27:52.583Z,35.00
2019-03-20T21:30:37.047Z,52.10
2019-03-20T21:33:12.235Z,41.07
2019-03-20T21:36:17.886Z,42.17
2019-03-20T21:38:48.295Z,38.47
2019-03-20T21:41:27.382Z,50.07
2019-03-20T21:44:34.699Z,51.50
2019-03-20T21:47:21.774Z,45.67
2019-03-20T21:49:51.859Z,49.07
2019-03-20T21:52:21.026Z,39.80
2019-03-20T21:54:56.089Z,37.60
2019-03-20T21:57:31.645Z,39.17
2019-03-20T22:00:21.675Z,34.80
2019-03-20T22:02:52.232Z,40.43
2019-03-20T22:05:30.409Z,34.37
2019-03-20T22:07:59.766Z,32.00
2019-03-20T22:10:37.836Z,38.13
2019-03-20T22:13:22.345Z,49.83
2019-03-20T22:16:04.320Z,38.97
2019-03-20T22:19:11.135Z,40.10
2019-03-20T22:22:02.131Z,40.40
2019-03-20T22:24:38.356Z,44.53
2019-03-20T22:27:13.818Z,42.40
2019-03-20T22:29:42.999Z,38.97
2019-03-20T22:32:29.031Z,34.37
2019-03-20T22:35:19.633Z,42.03
2019-03-20T22:37:49.206Z,38.93
2019-03-20T22:40:39.150Z,36.97
2019-03-20T22:43:29.652Z,42.07
2019-03-20T22:46:14.422Z,37.83
2019-03-20T22:49:10.066Z,43.83
2019-03-20T22:51:59.844Z,36.87
2019-03-20T22:54:49.069Z,32.67
2019-03-20T22:57:23.860Z,46.90
2019-03-20T22:59:53.168Z,36.60
2019-03-20T23:02:31.897Z,39.13
2019-03-20T23:05:01.301Z,30.63
2019-03-20T23:07:36.443Z,38.90
2019-03-20T23:10:11.389Z,38.10
2019-03-20T23:12:42.948Z,35.83
2019-03-20T23:15:18.055Z,35.27
2019-03-20T23:17:47.241Z,33.20
2019-03-20T23:20:19.979Z,36.70
2019-03-20T23:22:49.674Z,39.57
2019-03-20T23:25:18.934Z,40.10
2019-03-20T23:27:48.082Z,40.27
2019-03-20T23:30:21.290Z,38.10
2019-03-20T23:32:50.899Z,35.07
2019-03-20T23:35:20.251Z,34.83
2019-03-20T23:37:49.615Z,33.87
2019-03-20T23:40:20.082Z,32.57
2019-03-20T23:42:58.290Z,27.37
2019-03-20T23:45:27.705Z,33.40
2019-03-20T23:48:12.914Z,32.33
2019-03-20T23:50:42.675Z,27.40
2019-03-20T23:53:13.000Z,32.00
2019-03-20T23:55:47.571Z,26.73
2019-03-20T23:58:18.622Z,32.20
